sensor_id;sensor_type;location;lat;lon;timestamp;temperature;humidity
53282;DHT22;39167;52.794;6.892;2022-07-23T00:01:16;15.50;99.90
53282;DHT22;39167;52.794;6.892;2022-07-23T00:03:42;15.40;99.90
53282;DHT22;39167;52.794;6.892;2022-07-23T00:06:08;15.40;99.90
53282;DHT22;39167;52.794;6.892;2022-07-23T00:08:33;15.40;99.90
53282;DHT22;39167;52.794;6.892;2022-07-23T00:10:59;15.40;99.90
53282;DHT22;39167;52.794;6.892;2022-07-23T00:13:26;15.40;99.90
53282;DHT22;39167;52.794;6.892;2022-07-23T00:15:52;15.30;99.90
53282;DHT22;39167;52.794;6.892;2022-07-23T00:18:18;15.30;99.90
53282;DHT22;39167;52.794;6.892;2022-07-23T00:20:44;15.30;99.90
53282;DHT22;39167;52.794;6.892;2022-07-23T00:23:09;15.20;99.90
53282;DHT22;39167;52.794;6.892;2022-07-23T00:25:35;15.30;99.90
53282;DHT22;39167;52.794;6.892;2022-07-23T00:28:01;15.30;99.90
53282;DHT22;39167;52.794;6.892;2022-07-23T00:30:28;15.30;99.90
53282;DHT22;39167;52.794;6.892;2022-07-23T00:33:02;15.20;99.90
53282;DHT22;39167;52.794;6.892;2022-07-23T00:35:31;15.10;99.90
53282;DHT22;39167;52.794;6.892;2022-07-23T00:37:58;15.10;99.90
53282;DHT22;39167;52.794;6.892;2022-07-23T00:40:24;15.10;99.90
53282;DHT22;39167;52.794;6.892;2022-07-23T00:42:50;15.10;99.90
53282;DHT22;39167;52.794;6.892;2022-07-23T00:45:15;15.10;99.90
53282;DHT22;39167;52.794;6.892;2022-07-23T00:47:41;15.10;99.90
53282;DHT22;39167;52.794;6.892;2022-07-23T00:50:08;15.10;99.90
53282;DHT22;39167;52.794;6.892;2022-07-23T00:52:35;15.00;99.90
53282;DHT22;39167;52.794;6.892;2022-07-23T00:55:01;15.00;99.90
53282;DHT22;39167;52.794;6.892;2022-07-23T00:57:27;14.90;99.90
53282;DHT22;39167;52.794;6.892;2022-07-23T00:59:53;14.90;99.90
53282;DHT22;39167;52.794;6.892;2022-07-23T01:02:18;14.90;99.90
53282;DHT22;39167;52.794;6.892;2022-07-23T01:04:45;14.90;99.90
53282;DHT22;39167;52.794;6.892;2022-07-23T01:07:10;14.80;99.90
53282;DHT22;39167;52.794;6.892;2022-07-23T01:09:36;14.80;99.90
53282;DHT22;39167;52.794;6.892;2022-07-23T01:12:03;14.80;99.90
53282;DHT22;39167;52.794;6.892;2022-07-23T01:14:29;14.80;99.90
53282;DHT22;39167;52.794;6.892;2022-07-23T01:16:54;14.70;99.90
53282;DHT22;39167;52.794;6.892;2022-07-23T01:19:20;14.70;99.90
53282;DHT22;39167;52.794;6.892;2022-07-23T01:21:48;14.80;99.90
53282;DHT22;39167;52.794;6.892;2022-07-23T01:24:14;14.70;99.90
53282;DHT22;39167;52.794;6.892;2022-07-23T01:26:44;14.70;99.90
53282;DHT22;39167;52.794;6.892;2022-07-23T01:29:11;14.70;99.90
53282;DHT22;39167;52.794;6.892;2022-07-23T01:31:37;14.70;99.90
53282;DHT22;39167;52.794;6.892;2022-07-23T01:34:03;14.70;99.90
53282;DHT22;39167;52.794;6.892;2022-07-23T01:36:29;14.70;99.90
53282;DHT22;39167;52.794;6.892;2022-07-23T01:38:55;14.60;99.90
53282;DHT22;39167;52.794;6.892;2022-07-23T01:41:21;14.70;99.90
53282;DHT22;39167;52.794;6.892;2022-07-23T01:43:46;14.60;99.90
53282;DHT22;39167;52.794;6.892;2022-07-23T01:46:12;14.50;99.90
53282;DHT22;39167;52.794;6.892;2022-07-23T01:48:38;14.50;99.90
53282;DHT22;39167;52.794;6.892;2022-07-23T01:51:04;14.60;99.90
53282;DHT22;39167;52.794;6.892;2022-07-23T01:53:30;14.60;99.90
53282;DHT22;39167;52.794;6.892;2022-07-23T01:55:59;14.60;99.90
53282;DHT22;39167;52.794;6.892;2022-07-23T01:58:26;14.60;99.90
53282;DHT22;39167;52.794;6.892;2022-07-23T02:00:52;14.50;99.90
53282;DHT22;39167;52.794;6.892;2022-07-23T02:03:18;14.60;99.90
53282;DHT22;39167;52.794;6.892;2022-07-23T02:05:44;14.50;99.90
53282;DHT22;39167;52.794;6.892;2022-07-23T02:08:10;14.50;99.90
53282;DHT22;39167;52.794;6.892;2022-07-23T02:10:36;14.60;99.90
53282;DHT22;39167;52.794;6.892;2022-07-23T02:13:01;14.60;99.90
53282;DHT22;39167;52.794;6.892;2022-07-23T02:15:27;14.60;99.90
53282;DHT22;39167;52.794;6.892;2022-07-23T02:17:54;14.50;99.90
53282;DHT22;39167;52.794;6.892;2022-07-23T02:20:21;14.50;99.90
53282;DHT22;39167;52.794;6.892;2022-07-23T02:22:47;14.40;99.90
53282;DHT22;39167;52.794;6.892;2022-07-23T02:25:13;14.40;99.90
53282;DHT22;39167;52.794;6.892;2022-07-23T02:27:39;14.30;99.90
53282;DHT22;39167;52.794;6.892;2022-07-23T02:30:05;14.40;99.90
53282;DHT22;39167;52.794;6.892;2022-07-23T02:32:31;14.30;99.90
53282;DHT22;39167;52.794;6.892;2022-07-23T02:34:57;14.30;99.90
53282;DHT22;39167;52.794;6.892;2022-07-23T02:37:22;14.30;99.90
53282;DHT22;39167;52.794;6.892;2022-07-23T02:39:48;14.20;99.90
53282;DHT22;39167;52.794;6.892;2022-07-23T02:42:14;14.20;99.90
53282;DHT22;39167;52.794;6.892;2022-07-23T02:44:40;14.20;99.90
53282;DHT22;39167;52.794;6.892;2022-07-23T02:47:06;14.20;99.90
53282;DHT22;39167;52.794;6.892;2022-07-23T02:49:32;14.10;99.90
53282;DHT22;39167;52.794;6.892;2022-07-23T02:51:58;14.00;99.90
53282;DHT22;39167;52.794;6.892;2022-07-23T02:54:23;14.00;99.90
53282;DHT22;39167;52.794;6.892;2022-07-23T02:56:49;14.00;99.90
53282;DHT22;39167;52.794;6.892;2022-07-23T02:59:17;14.00;99.90
53282;DHT22;39167;52.794;6.892;2022-07-23T03:01:42;14.00;99.90
53282;DHT22;39167;52.794;6.892;2022-07-23T03:04:08;14.00;99.90
53282;DHT22;39167;52.794;6.892;2022-07-23T03:06:34;14.00;99.90
53282;DHT22;39167;52.794;6.892;2022-07-23T03:09:00;13.90;99.90
53282;DHT22;39167;52.794;6.892;2022-07-23T03:11:25;13.90;99.90
53282;DHT22;39167;52.794;6.892;2022-07-23T03:13:51;13.80;99.90
53282;DHT22;39167;52.794;6.892;2022-07-23T03:16:17;13.80;99.90
53282;DHT22;39167;52.794;6.892;2022-07-23T03:18:42;13.70;99.90
53282;DHT22;39167;52.794;6.892;2022-07-23T03:21:08;13.80;99.90
53282;DHT22;39167;52.794;6.892;2022-07-23T03:23:34;13.70;99.90
53282;DHT22;39167;52.794;6.892;2022-07-23T03:26:00;13.70;99.90
53282;DHT22;39167;52.794;6.892;2022-07-23T03:28:25;13.70;99.90
53282;DHT22;39167;52.794;6.892;2022-07-23T03:30:51;13.80;99.90
53282;DHT22;39167;52.794;6.892;2022-07-23T03:33:18;13.70;99.90
53282;DHT22;39167;52.794;6.892;2022-07-23T03:35:44;13.70;99.90
53282;DHT22;39167;52.794;6.892;2022-07-23T03:38:10;13.60;99.90
53282;DHT22;39167;52.794;6.892;2022-07-23T03:40:36;13.60;99.90
53282;DHT22;39167;52.794;6.892;2022-07-23T03:43:01;13.60;99.90
53282;DHT22;39167;52.794;6.892;2022-07-23T03:45:27;13.60;99.90
53282;DHT22;39167;52.794;6.892;2022-07-23T03:47:54;13.60;99.90
53282;DHT22;39167;52.794;6.892;2022-07-23T03:50:20;13.60;99.90
53282;DHT22;39167;52.794;6.892;2022-07-23T03:52:46;13.60;99.90
53282;DHT22;39167;52.794;6.892;2022-07-23T03:55:12;13.60;99.90
53282;DHT22;39167;52.794;6.892;2022-07-23T03:57:37;13.60;99.90
53282;DHT22;39167;52.794;6.892;2022-07-23T04:00:04;13.60;99.90
53282;DHT22;39167;52.794;6.892;2022-07-23T04:02:31;13.60;99.90
53282;DHT22;39167;52.794;6.892;2022-07-23T04:04:57;13.60;99.90
53282;DHT22;39167;52.794;6.892;2022-07-23T04:07:22;13.50;99.90
53282;DHT22;39167;52.794;6.892;2022-07-23T04:09:48;13.50;99.90
53282;DHT22;39167;52.794;6.892;2022-07-23T04:12:14;13.50;99.90
53282;DHT22;39167;52.794;6.892;2022-07-23T04:14:40;13.50;99.90
53282;DHT22;39167;52.794;6.892;2022-07-23T04:17:06;13.50;99.90
53282;DHT22;39167;52.794;6.892;2022-07-23T04:19:32;13.40;99.90
53282;DHT22;39167;52.794;6.892;2022-07-23T04:21:58;13.40;99.90
53282;DHT22;39167;52.794;6.892;2022-07-23T04:24:23;13.40;99.90
53282;DHT22;39167;52.794;6.892;2022-07-23T04:26:49;13.40;99.90
53282;DHT22;39167;52.794;6.892;2022-07-23T04:29:15;13.40;99.90
53282;DHT22;39167;52.794;6.892;2022-07-23T04:31:40;13.50;99.90
53282;DHT22;39167;52.794;6.892;2022-07-23T04:34:06;13.40;99.90
53282;DHT22;39167;52.794;6.892;2022-07-23T04:36:32;13.40;99.90
53282;DHT22;39167;52.794;6.892;2022-07-23T04:38:57;13.40;99.90
53282;DHT22;39167;52.794;6.892;2022-07-23T04:41:23;13.30;99.90
53282;DHT22;39167;52.794;6.892;2022-07-23T04:43:49;13.40;99.90
53282;DHT22;39167;52.794;6.892;2022-07-23T04:46:14;13.40;99.90
53282;DHT22;39167;52.794;6.892;2022-07-23T04:48:40;13.40;99.90
53282;DHT22;39167;52.794;6.892;2022-07-23T04:51:07;13.40;99.90
53282;DHT22;39167;52.794;6.892;2022-07-23T04:53:33;13.40;99.90
53282;DHT22;39167;52.794;6.892;2022-07-23T04:55:59;13.40;99.90
53282;DHT22;39167;52.794;6.892;2022-07-23T04:58:24;13.40;99.90
53282;DHT22;39167;52.794;6.892;2022-07-23T05:00:50;13.30;99.90
53282;DHT22;39167;52.794;6.892;2022-07-23T05:03:17;13.30;99.90
53282;DHT22;39167;52.794;6.892;2022-07-23T05:05:42;13.30;99.90
53282;DHT22;39167;52.794;6.892;2022-07-23T05:08:08;13.40;99.90
53282;DHT22;39167;52.794;6.892;2022-07-23T05:10:34;13.50;99.90
53282;DHT22;39167;52.794;6.892;2022-07-23T05:13:00;13.40;99.90
53282;DHT22;39167;52.794;6.892;2022-07-23T05:15:25;13.40;99.90
53282;DHT22;39167;52.794;6.892;2022-07-23T05:17:51;13.50;99.90
53282;DHT22;39167;52.794;6.892;2022-07-23T05:20:17;13.50;99.90
53282;DHT22;39167;52.794;6.892;2022-07-23T05:22:43;13.60;99.90
53282;DHT22;39167;52.794;6.892;2022-07-23T05:25:09;13.50;99.90
53282;DHT22;39167;52.794;6.892;2022-07-23T05:27:35;13.50;99.90
53282;DHT22;39167;52.794;6.892;2022-07-23T05:30:00;13.60;99.90
53282;DHT22;39167;52.794;6.892;2022-07-23T05:32:26;13.60;99.90
53282;DHT22;39167;52.794;6.892;2022-07-23T05:34:52;13.70;99.90
53282;DHT22;39167;52.794;6.892;2022-07-23T05:37:17;13.70;99.90
53282;DHT22;39167;52.794;6.892;2022-07-23T05:39:43;13.70;99.90
53282;DHT22;39167;52.794;6.892;2022-07-23T05:42:09;13.70;99.90
53282;DHT22;39167;52.794;6.892;2022-07-23T05:44:35;13.60;99.90
53282;DHT22;39167;52.794;6.892;2022-07-23T05:47:01;13.70;99.90
53282;DHT22;39167;52.794;6.892;2022-07-23T05:49:27;13.70;99.90
53282;DHT22;39167;52.794;6.892;2022-07-23T05:51:52;13.80;99.90
53282;DHT22;39167;52.794;6.892;2022-07-23T05:54:18;13.80;99.90
53282;DHT22;39167;52.794;6.892;2022-07-23T05:56:44;13.80;99.90
53282;DHT22;39167;52.794;6.892;2022-07-23T05:59:09;13.80;99.90
53282;DHT22;39167;52.794;6.892;2022-07-23T06:01:37;13.90;99.90
53282;DHT22;39167;52.794;6.892;2022-07-23T06:04:03;13.90;99.90
53282;DHT22;39167;52.794;6.892;2022-07-23T06:06:28;13.90;99.90
53282;DHT22;39167;52.794;6.892;2022-07-23T06:08:54;14.00;99.90
53282;DHT22;39167;52.794;6.892;2022-07-23T06:11:20;14.00;99.90
53282;DHT22;39167;52.794;6.892;2022-07-23T06:13:45;14.10;99.90
53282;DHT22;39167;52.794;6.892;2022-07-23T06:16:11;14.10;99.90
53282;DHT22;39167;52.794;6.892;2022-07-23T06:18:37;14.10;99.90
53282;DHT22;39167;52.794;6.892;2022-07-23T06:21:02;14.20;99.90
53282;DHT22;39167;52.794;6.892;2022-07-23T06:23:28;14.20;99.90
53282;DHT22;39167;52.794;6.892;2022-07-23T06:25:54;14.30;99.90
53282;DHT22;39167;52.794;6.892;2022-07-23T06:28:20;14.30;99.90
53282;DHT22;39167;52.794;6.892;2022-07-23T06:30:46;14.40;99.90
53282;DHT22;39167;52.794;6.892;2022-07-23T06:33:12;14.40;99.90
53282;DHT22;39167;52.794;6.892;2022-07-23T06:35:37;14.50;99.90
53282;DHT22;39167;52.794;6.892;2022-07-23T06:38:03;14.50;99.90
53282;DHT22;39167;52.794;6.892;2022-07-23T06:40:29;14.50;99.90
53282;DHT22;39167;52.794;6.892;2022-07-23T06:42:55;14.60;99.90
53282;DHT22;39167;52.794;6.892;2022-07-23T06:45:20;14.60;99.90
53282;DHT22;39167;52.794;6.892;2022-07-23T06:47:46;14.70;99.90
53282;DHT22;39167;52.794;6.892;2022-07-23T06:50:12;14.80;99.90
53282;DHT22;39167;52.794;6.892;2022-07-23T06:52:38;14.80;99.90
53282;DHT22;39167;52.794;6.892;2022-07-23T06:55:04;14.90;99.90
53282;DHT22;39167;52.794;6.892;2022-07-23T06:57:30;14.90;99.90
53282;DHT22;39167;52.794;6.892;2022-07-23T06:59:55;14.90;99.90
53282;DHT22;39167;52.794;6.892;2022-07-23T07:02:21;15.00;99.90
53282;DHT22;39167;52.794;6.892;2022-07-23T07:04:47;15.00;99.90
53282;DHT22;39167;52.794;6.892;2022-07-23T07:07:13;15.10;99.90
53282;DHT22;39167;52.794;6.892;2022-07-23T07:09:39;15.20;99.90
53282;DHT22;39167;52.794;6.892;2022-07-23T07:12:05;15.20;99.90
53282;DHT22;39167;52.794;6.892;2022-07-23T07:14:30;15.20;99.90
53282;DHT22;39167;52.794;6.892;2022-07-23T07:16:56;15.30;99.90
53282;DHT22;39167;52.794;6.892;2022-07-23T07:19:22;15.30;99.90
53282;DHT22;39167;52.794;6.892;2022-07-23T07:21:47;15.40;99.90
53282;DHT22;39167;52.794;6.892;2022-07-23T07:24:13;15.40;99.90
53282;DHT22;39167;52.794;6.892;2022-07-23T07:26:39;15.50;99.90
53282;DHT22;39167;52.794;6.892;2022-07-23T07:29:05;15.60;99.90
53282;DHT22;39167;52.794;6.892;2022-07-23T07:31:31;15.60;99.90
53282;DHT22;39167;52.794;6.892;2022-07-23T07:33:58;15.70;99.90
53282;DHT22;39167;52.794;6.892;2022-07-23T07:36:23;15.70;99.90
53282;DHT22;39167;52.794;6.892;2022-07-23T07:38:49;15.80;99.90
53282;DHT22;39167;52.794;6.892;2022-07-23T07:41:15;15.80;99.90
53282;DHT22;39167;52.794;6.892;2022-07-23T07:43:41;15.90;99.90
53282;DHT22;39167;52.794;6.892;2022-07-23T07:46:07;15.90;99.90
53282;DHT22;39167;52.794;6.892;2022-07-23T07:48:37;15.90;99.90
53282;DHT22;39167;52.794;6.892;2022-07-23T07:51:04;16.00;99.90
53282;DHT22;39167;52.794;6.892;2022-07-23T07:53:30;16.10;99.90
53282;DHT22;39167;52.794;6.892;2022-07-23T07:55:55;16.10;99.90
53282;DHT22;39167;52.794;6.892;2022-07-23T07:58:21;16.20;99.90
53282;DHT22;39167;52.794;6.892;2022-07-23T08:00:47;16.20;99.90
53282;DHT22;39167;52.794;6.892;2022-07-23T08:03:13;16.30;99.90
53282;DHT22;39167;52.794;6.892;2022-07-23T08:05:39;16.40;99.90
53282;DHT22;39167;52.794;6.892;2022-07-23T08:08:04;16.40;99.90
53282;DHT22;39167;52.794;6.892;2022-07-23T08:10:30;16.50;99.90
53282;DHT22;39167;52.794;6.892;2022-07-23T08:12:58;16.50;99.90
53282;DHT22;39167;52.794;6.892;2022-07-23T08:15:26;16.70;99.90
53282;DHT22;39167;52.794;6.892;2022-07-23T08:17:52;16.70;99.90
53282;DHT22;39167;52.794;6.892;2022-07-23T08:20:19;16.80;99.90
53282;DHT22;39167;52.794;6.892;2022-07-23T08:25:19;16.90;99.90
53282;DHT22;39167;52.794;6.892;2022-07-23T08:27:45;16.90;99.90
53282;DHT22;39167;52.794;6.892;2022-07-23T08:30:11;16.90;99.90
53282;DHT22;39167;52.794;6.892;2022-07-23T08:35:16;17.00;99.90
53282;DHT22;39167;52.794;6.892;2022-07-23T08:37:42;17.00;99.90
53282;DHT22;39167;52.794;6.892;2022-07-23T08:40:08;17.00;99.90
53282;DHT22;39167;52.794;6.892;2022-07-23T08:42:35;17.10;99.90
53282;DHT22;39167;52.794;6.892;2022-07-23T08:45:02;17.10;99.90
53282;DHT22;39167;52.794;6.892;2022-07-23T08:47:29;17.20;99.90
53282;DHT22;39167;52.794;6.892;2022-07-23T08:49:56;17.40;99.90
53282;DHT22;39167;52.794;6.892;2022-07-23T08:52:24;17.50;99.90
53282;DHT22;39167;52.794;6.892;2022-07-23T08:54:50;17.50;99.90
53282;DHT22;39167;52.794;6.892;2022-07-23T08:57:16;17.60;99.90
53282;DHT22;39167;52.794;6.892;2022-07-23T08:59:42;17.60;99.90
53282;DHT22;39167;52.794;6.892;2022-07-23T09:02:08;17.60;99.90
53282;DHT22;39167;52.794;6.892;2022-07-23T09:04:34;17.70;99.90
53282;DHT22;39167;52.794;6.892;2022-07-23T09:07:01;17.70;99.90
53282;DHT22;39167;52.794;6.892;2022-07-23T09:09:27;17.70;99.90
53282;DHT22;39167;52.794;6.892;2022-07-23T09:12:04;17.80;99.90
53282;DHT22;39167;52.794;6.892;2022-07-23T09:14:43;17.90;99.90
53282;DHT22;39167;52.794;6.892;2022-07-23T09:17:14;17.90;99.90
53282;DHT22;39167;52.794;6.892;2022-07-23T09:19:41;18.00;99.90
53282;DHT22;39167;52.794;6.892;2022-07-23T09:22:37;18.00;99.90
53282;DHT22;39167;52.794;6.892;2022-07-23T09:25:09;17.90;99.90
53282;DHT22;39167;52.794;6.892;2022-07-23T09:30:11;17.90;99.90
53282;DHT22;39167;52.794;6.892;2022-07-23T09:32:38;17.90;99.90
53282;DHT22;39167;52.794;6.892;2022-07-23T09:35:04;17.90;99.90
53282;DHT22;39167;52.794;6.892;2022-07-23T09:37:29;17.90;99.90
53282;DHT22;39167;52.794;6.892;2022-07-23T09:40:07;17.90;99.90
53282;DHT22;39167;52.794;6.892;2022-07-23T09:42:33;17.90;99.90
53282;DHT22;39167;52.794;6.892;2022-07-23T09:44:59;17.90;99.90
53282;DHT22;39167;52.794;6.892;2022-07-23T09:47:29;18.00;99.90
53282;DHT22;39167;52.794;6.892;2022-07-23T09:52:33;18.20;99.90
53282;DHT22;39167;52.794;6.892;2022-07-23T09:55:00;18.30;99.90
53282;DHT22;39167;52.794;6.892;2022-07-23T09:57:27;18.30;99.90
53282;DHT22;39167;52.794;6.892;2022-07-23T09:59:53;18.30;99.90
53282;DHT22;39167;52.794;6.892;2022-07-23T10:02:22;18.30;99.90
53282;DHT22;39167;52.794;6.892;2022-07-23T10:04:49;18.40;99.90
53282;DHT22;39167;52.794;6.892;2022-07-23T10:07:17;18.40;99.90
53282;DHT22;39167;52.794;6.892;2022-07-23T10:09:47;18.50;99.90
53282;DHT22;39167;52.794;6.892;2022-07-23T10:12:14;18.60;99.90
53282;DHT22;39167;52.794;6.892;2022-07-23T10:14:58;18.70;99.90
53282;DHT22;39167;52.794;6.892;2022-07-23T10:17:27;18.80;99.90
53282;DHT22;39167;52.794;6.892;2022-07-23T10:19:53;18.90;99.90
53282;DHT22;39167;52.794;6.892;2022-07-23T10:22:22;18.90;99.90
53282;DHT22;39167;52.794;6.892;2022-07-23T10:27:54;19.00;99.90
53282;DHT22;39167;52.794;6.892;2022-07-23T10:38:29;19.10;99.90
53282;DHT22;39167;52.794;6.892;2022-07-23T10:41:01;19.20;99.90
53282;DHT22;39167;52.794;6.892;2022-07-23T10:43:28;19.30;99.90
53282;DHT22;39167;52.794;6.892;2022-07-23T10:45:55;19.40;99.90
53282;DHT22;39167;52.794;6.892;2022-07-23T10:48:25;19.50;99.90
53282;DHT22;39167;52.794;6.892;2022-07-23T10:59:06;19.60;99.90
53282;DHT22;39167;52.794;6.892;2022-07-23T11:01:38;19.60;99.90
53282;DHT22;39167;52.794;6.892;2022-07-23T11:04:05;19.70;99.90
53282;DHT22;39167;52.794;6.892;2022-07-23T11:09:32;19.60;99.90
53282;DHT22;39167;52.794;6.892;2022-07-23T11:17:23;19.60;99.90
53282;DHT22;39167;52.794;6.892;2022-07-23T11:22:48;19.70;99.90
53282;DHT22;39167;52.794;6.892;2022-07-23T11:27:46;19.80;99.90
53282;DHT22;39167;52.794;6.892;2022-07-23T11:35:45;20.10;99.90
53282;DHT22;39167;52.794;6.892;2022-07-23T11:38:15;20.20;99.90
53282;DHT22;39167;52.794;6.892;2022-07-23T11:40:44;20.20;99.90
53282;DHT22;39167;52.794;6.892;2022-07-23T11:43:11;20.20;99.90
53282;DHT22;39167;52.794;6.892;2022-07-23T11:45:41;20.20;99.90
53282;DHT22;39167;52.794;6.892;2022-07-23T11:48:09;20.20;99.90
53282;DHT22;39167;52.794;6.892;2022-07-23T11:50:35;20.20;99.90
53282;DHT22;39167;52.794;6.892;2022-07-23T11:53:02;20.30;99.90
53282;DHT22;39167;52.794;6.892;2022-07-23T11:55:27;20.20;99.90
53282;DHT22;39167;52.794;6.892;2022-07-23T11:57:54;20.20;99.90
53282;DHT22;39167;52.794;6.892;2022-07-23T12:00:23;20.20;99.90
53282;DHT22;39167;52.794;6.892;2022-07-23T12:02:55;20.10;99.90
53282;DHT22;39167;52.794;6.892;2022-07-23T12:05:23;20.10;99.90
53282;DHT22;39167;52.794;6.892;2022-07-23T12:07:51;20.00;99.90
53282;DHT22;39167;52.794;6.892;2022-07-23T12:10:41;20.00;99.90
53282;DHT22;39167;52.794;6.892;2022-07-23T12:13:16;20.10;99.90
53282;DHT22;39167;52.794;6.892;2022-07-23T12:15:48;20.10;99.90
53282;DHT22;39167;52.794;6.892;2022-07-23T12:18:18;20.10;99.90
53282;DHT22;39167;52.794;6.892;2022-07-23T12:20:47;20.20;99.90
53282;DHT22;39167;52.794;6.892;2022-07-23T12:23:15;20.30;99.90
53282;DHT22;39167;52.794;6.892;2022-07-23T12:25:43;20.40;99.90
53282;DHT22;39167;52.794;6.892;2022-07-23T12:28:21;20.40;99.90
53282;DHT22;39167;52.794;6.892;2022-07-23T12:33:20;20.50;99.90
53282;DHT22;39167;52.794;6.892;2022-07-23T12:35:46;20.50;99.90
53282;DHT22;39167;52.794;6.892;2022-07-23T12:38:16;20.50;99.90
53282;DHT22;39167;52.794;6.892;2022-07-23T12:40:54;20.50;99.90
53282;DHT22;39167;52.794;6.892;2022-07-23T12:43:21;20.50;99.90
53282;DHT22;39167;52.794;6.892;2022-07-23T12:48:30;20.60;99.90
53282;DHT22;39167;52.794;6.892;2022-07-23T12:51:08;20.70;99.90
53282;DHT22;39167;52.794;6.892;2022-07-23T12:53:39;20.70;99.90
53282;DHT22;39167;52.794;6.892;2022-07-23T12:56:11;20.70;99.90
53282;DHT22;39167;52.794;6.892;2022-07-23T12:58:50;20.70;99.90
53282;DHT22;39167;52.794;6.892;2022-07-23T13:06:21;20.70;99.90
53282;DHT22;39167;52.794;6.892;2022-07-23T13:08:46;20.70;99.90
53282;DHT22;39167;52.794;6.892;2022-07-23T13:11:13;20.80;99.90
53282;DHT22;39167;52.794;6.892;2022-07-23T13:13:38;20.80;99.90
53282;DHT22;39167;52.794;6.892;2022-07-23T13:16:04;20.80;99.90
53282;DHT22;39167;52.794;6.892;2022-07-23T13:18:30;20.80;99.90
53282;DHT22;39167;52.794;6.892;2022-07-23T13:20:57;20.80;99.90
53282;DHT22;39167;52.794;6.892;2022-07-23T13:23:23;20.80;99.90
53282;DHT22;39167;52.794;6.892;2022-07-23T13:25:49;20.90;99.90
53282;DHT22;39167;52.794;6.892;2022-07-23T13:28:16;20.90;99.90
53282;DHT22;39167;52.794;6.892;2022-07-23T13:30:43;21.10;99.90
53282;DHT22;39167;52.794;6.892;2022-07-23T13:33:09;21.20;99.90
53282;DHT22;39167;52.794;6.892;2022-07-23T13:35:36;21.30;99.90
53282;DHT22;39167;52.794;6.892;2022-07-23T13:38:04;21.30;99.90
53282;DHT22;39167;52.794;6.892;2022-07-23T13:40:30;21.40;99.90
53282;DHT22;39167;52.794;6.892;2022-07-23T13:42:56;21.40;99.90
53282;DHT22;39167;52.794;6.892;2022-07-23T13:45:22;21.40;99.90
53282;DHT22;39167;52.794;6.892;2022-07-23T13:47:47;21.30;99.90
53282;DHT22;39167;52.794;6.892;2022-07-23T13:50:13;21.30;99.90
53282;DHT22;39167;52.794;6.892;2022-07-23T13:52:42;21.40;99.90
53282;DHT22;39167;52.794;6.892;2022-07-23T13:55:08;21.40;99.90
53282;DHT22;39167;52.794;6.892;2022-07-23T13:57:34;21.50;99.90
53282;DHT22;39167;52.794;6.892;2022-07-23T14:00:00;21.60;99.90
53282;DHT22;39167;52.794;6.892;2022-07-23T14:02:26;21.60;99.90
53282;DHT22;39167;52.794;6.892;2022-07-23T14:04:52;21.70;99.90
53282;DHT22;39167;52.794;6.892;2022-07-23T14:07:18;21.80;99.90
53282;DHT22;39167;52.794;6.892;2022-07-23T14:09:44;21.90;99.90
53282;DHT22;39167;52.794;6.892;2022-07-23T14:12:10;21.90;99.90
53282;DHT22;39167;52.794;6.892;2022-07-23T14:14:36;22.00;99.90
53282;DHT22;39167;52.794;6.892;2022-07-23T14:17:02;22.10;99.90
53282;DHT22;39167;52.794;6.892;2022-07-23T14:19:28;22.10;99.90
53282;DHT22;39167;52.794;6.892;2022-07-23T14:21:54;22.20;99.90
53282;DHT22;39167;52.794;6.892;2022-07-23T14:24:20;22.10;99.90
53282;DHT22;39167;52.794;6.892;2022-07-23T14:26:46;22.10;99.90
53282;DHT22;39167;52.794;6.892;2022-07-23T14:29:12;22.10;99.90
53282;DHT22;39167;52.794;6.892;2022-07-23T14:31:37;22.10;99.90
53282;DHT22;39167;52.794;6.892;2022-07-23T14:34:03;22.20;99.90
53282;DHT22;39167;52.794;6.892;2022-07-23T14:36:29;22.20;99.90
53282;DHT22;39167;52.794;6.892;2022-07-23T14:38:55;22.20;99.90
53282;DHT22;39167;52.794;6.892;2022-07-23T14:41:20;22.20;99.90
53282;DHT22;39167;52.794;6.892;2022-07-23T14:43:46;22.20;99.90
53282;DHT22;39167;52.794;6.892;2022-07-23T14:46:13;22.20;99.90
53282;DHT22;39167;52.794;6.892;2022-07-23T14:48:39;22.10;99.90
53282;DHT22;39167;52.794;6.892;2022-07-23T14:51:04;22.10;99.90
53282;DHT22;39167;52.794;6.892;2022-07-23T14:53:30;22.10;99.90
53282;DHT22;39167;52.794;6.892;2022-07-23T14:55:56;22.20;99.90
53282;DHT22;39167;52.794;6.892;2022-07-23T14:58:24;22.30;99.90
53282;DHT22;39167;52.794;6.892;2022-07-23T15:00:50;22.30;99.90
53282;DHT22;39167;52.794;6.892;2022-07-23T15:03:16;22.30;99.90
53282;DHT22;39167;52.794;6.892;2022-07-23T15:05:42;22.40;99.90
53282;DHT22;39167;52.794;6.892;2022-07-23T15:08:08;22.40;99.90
53282;DHT22;39167;52.794;6.892;2022-07-23T15:10:34;22.40;99.90
53282;DHT22;39167;52.794;6.892;2022-07-23T15:12:59;22.40;99.90
53282;DHT22;39167;52.794;6.892;2022-07-23T15:15:25;22.40;99.90
53282;DHT22;39167;52.794;6.892;2022-07-23T15:17:51;22.40;99.90
53282;DHT22;39167;52.794;6.892;2022-07-23T15:20:16;22.40;99.90
53282;DHT22;39167;52.794;6.892;2022-07-23T15:22:42;22.50;99.90
53282;DHT22;39167;52.794;6.892;2022-07-23T15:25:11;22.50;99.90
53282;DHT22;39167;52.794;6.892;2022-07-23T15:27:37;22.50;99.90
53282;DHT22;39167;52.794;6.892;2022-07-23T15:30:03;22.60;99.90
53282;DHT22;39167;52.794;6.892;2022-07-23T15:32:29;22.60;99.90
53282;DHT22;39167;52.794;6.892;2022-07-23T15:34:55;22.50;99.90
53282;DHT22;39167;52.794;6.892;2022-07-23T15:37:22;22.50;99.90
53282;DHT22;39167;52.794;6.892;2022-07-23T15:39:49;22.50;99.90
53282;DHT22;39167;52.794;6.892;2022-07-23T15:42:15;22.50;99.90
53282;DHT22;39167;52.794;6.892;2022-07-23T15:44:42;22.60;99.90
53282;DHT22;39167;52.794;6.892;2022-07-23T15:47:12;22.60;99.90
53282;DHT22;39167;52.794;6.892;2022-07-23T15:49:38;22.80;99.90
53282;DHT22;39167;52.794;6.892;2022-07-23T15:52:04;22.90;99.90
53282;DHT22;39167;52.794;6.892;2022-07-23T15:54:30;22.90;99.90
53282;DHT22;39167;52.794;6.892;2022-07-23T15:56:56;23.00;99.90
53282;DHT22;39167;52.794;6.892;2022-07-23T15:59:22;23.00;99.90
53282;DHT22;39167;52.794;6.892;2022-07-23T16:01:48;23.00;99.90
53282;DHT22;39167;52.794;6.892;2022-07-23T16:04:13;23.00;99.90
53282;DHT22;39167;52.794;6.892;2022-07-23T16:06:40;23.00;99.90
53282;DHT22;39167;52.794;6.892;2022-07-23T16:09:07;23.10;99.90
53282;DHT22;39167;52.794;6.892;2022-07-23T16:11:33;23.30;99.90
53282;DHT22;39167;52.794;6.892;2022-07-23T16:13:59;23.40;99.90
53282;DHT22;39167;52.794;6.892;2022-07-23T16:16:25;23.60;99.90
53282;DHT22;39167;52.794;6.892;2022-07-23T16:18:55;23.70;99.90
53282;DHT22;39167;52.794;6.892;2022-07-23T16:21:21;23.80;99.90
53282;DHT22;39167;52.794;6.892;2022-07-23T16:23:46;23.90;99.90
53282;DHT22;39167;52.794;6.892;2022-07-23T16:26:12;24.00;99.90